Brookfield, Connecticut
Current Conditions -  °F | °C
As of 1:53 PM on Wednesday 26 Nov 2014 (Local Time) from KDXR Reporting Station
Moderate Snow Moderate Snow  
Wind Chill: 29°   Ceiling: 500
Heat Index: 33°   Visibility: 0.5mi
Dew Point: 30°   Wind: 5mph
Humidity: 89%   Direction: 60°ENE
Pressure: 29.99"   Gusts: NA
Location:  41.48°N, 73.41°W
Report Text: KDXR 261853Z 06004KT 1/2SM SN FG VV005 01/M01 A2999 RMK AO2 SLP157 P0013 T00061011
Loading
Personal Weather Stations






























Interactive Weather Map New forecast layout! Learn more

10-Day Weather Forecast

Advertisements
Track Severe Weather on mobile